Time;durP1;ratioP1;P1;durP2;ratioP2;P2;SDS_P1;SDS_P2;PMS_P1;PMS_P2;Temp;Humidity;BMP_temperature;BMP_pressure;BME280_temperature;BME280_humidity;BME280_pressure;Samples;Min_cycle;Max_cycle;Signal;HPM_P1;HPM_P2
2023/12/08 00:02:21;;;;;;;8.70;3.67;;;;;;;-8.75;60.69;101634.47;4947995;29;20039;-60
2023/12/08 00:04:47;;;;;;;9.00;3.85;;;;;;;-8.45;60.67;101682.84;4926694;29;20047;-57
2023/12/08 00:07:13;;;;;;;8.82;3.58;;;;;;;-8.51;60.52;101684.91;4943540;29;20063;-57
2023/12/08 00:09:39;;;;;;;7.45;2.95;;;;;;;-8.52;60.27;101681.50;4930703;29;20143;-58
2023/12/08 00:12:05;;;;;;;9.45;3.92;;;;;;;-8.54;60.03;101685.56;4920158;29;20043;-59
2023/12/08 00:14:31;;;;;;;9.52;3.25;;;;;;;-8.58;60.49;101669.31;4932631;29;20426;-58
2023/12/08 00:16:57;;;;;;;10.20;3.92;;;;;;;-8.46;61.01;101681.94;4933155;29;20059;-57
2023/12/08 00:19:23;;;;;;;12.25;4.47;;;;;;;-8.41;60.30;101692.38;4935547;29;20047;-57
2023/12/08 00:21:49;;;;;;;9.65;3.63;;;;;;;-8.30;61.11;101686.47;4946584;29;20138;-59
2023/12/08 00:24:15;;;;;;;9.13;3.92;;;;;;;-8.34;60.10;101684.50;4948647;29;20054;-57
2023/12/08 00:26:41;;;;;;;9.70;4.22;;;;;;;-8.33;60.32;101677.06;4947853;28;20087;-60
2023/12/08 00:29:07;;;;;;;11.23;3.95;;;;;;;-8.30;60.27;101672.22;4934896;29;20070;-57
2023/12/08 00:31:33;;;;;;;13.38;4.13;;;;;;;-8.24;60.62;101670.09;4931855;29;20535;-59
2023/12/08 00:33:59;;;;;;;8.57;3.40;;;;;;;-8.21;60.12;101664.38;4917751;29;20516;-59
2023/12/08 00:36:25;;;;;;;8.13;3.08;;;;;;;-8.20;60.22;101674.59;4917167;29;20066;-57
2023/12/08 00:38:51;;;;;;;13.27;4.45;;;;;;;-8.22;60.61;101685.38;4934924;29;20054;-59
2023/12/08 00:41:17;;;;;;;10.32;4.30;;;;;;;-8.46;61.01;101640.72;4947802;29;20043;-59
2023/12/08 00:43:43;;;;;;;11.75;4.03;;;;;;;-8.25;61.28;101680.97;4933352;29;20043;-60
2023/12/08 00:46:12;;;;;;;8.57;3.35;;;;;;;-8.24;61.46;101686.88;4934905;29;20424;-57
2023/12/08 00:48:37;;;;;;;11.27;3.55;;;;;;;-8.25;61.08;101682.59;4936513;29;20137;-60
2023/12/08 00:51:03;;;;;;;10.80;3.28;;;;;;;-8.38;61.91;101655.66;4920743;29;20179;-60
2023/12/08 00:53:30;;;;;;;7.45;3.13;;;;;;;-8.29;61.72;101679.00;4948469;29;20490;-60
2023/12/08 00:55:55;;;;;;;9.90;3.40;;;;;;;-8.29;61.85;101679.00;4936322;29;20167;-59
2023/12/08 00:58:21;;;;;;;8.48;3.00;;;;;;;-8.55;61.58;101630.84;4934197;29;20499;-60
2023/12/08 01:00:47;;;;;;;9.25;3.35;;;;;;;-8.22;62.02;101681.19;4935303;29;20048;-57
2023/12/08 01:03:14;;;;;;;7.07;3.70;;;;;;;-8.25;61.61;101670.88;4933792;29;20054;-54
2023/12/08 01:05:40;;;;;;;10.50;3.92;;;;;;;-8.32;61.88;101651.03;4912858;29;20050;-59
2023/12/08 01:08:05;;;;;;;11.25;3.63;;;;;;;-8.20;61.49;101681.28;4946228;29;20039;-57
2023/12/08 01:10:31;;;;;;;7.28;3.28;;;;;;;-8.23;61.57;101665.94;4948234;28;20043;-60
2023/12/08 01:12:57;;;;;;;9.23;3.63;;;;;;;-8.27;61.38;101658.94;4935159;29;20094;-57
2023/12/08 01:15:23;;;;;;;11.63;3.63;;;;;;;-8.25;61.25;101659.91;4942801;29;20427;-58
2023/12/08 01:17:49;;;;;;;9.13;3.58;;;;;;;-8.19;61.40;101662.88;4954110;29;20423;-57
2023/12/08 01:20:15;;;;;;;8.90;3.55;;;;;;;-8.13;61.45;101664.19;4920411;29;20047;-59
2023/12/08 01:22:41;;;;;;;9.88;3.50;;;;;;;-8.06;61.15;101652.91;4918499;29;20063;-57
2023/12/08 01:25:07;;;;;;;12.95;4.35;;;;;;;-8.04;60.90;101660.56;4923342;29;20094;-59
2023/12/08 01:27:33;;;;;;;8.57;3.78;;;;;;;-8.08;61.18;101661.13;4921528;29;20040;-60
2023/12/08 01:29:58;;;;;;;11.48;4.15;;;;;;;-8.05;61.10;101654.63;4951787;29;20122;-57
2023/12/08 01:32:25;;;;;;;12.88;4.90;;;;;;;-7.91;60.61;101650.56;4938272;29;20135;-62
2023/12/08 01:34:51;;;;;;;13.75;4.40;;;;;;;-7.98;60.42;101649.25;4937576;29;20117;-59
2023/12/08 01:37:16;;;;;;;10.30;3.90;;;;;;;-7.94;60.23;101648.69;4936274;29;20043;-55
2023/12/08 01:39:42;;;;;;;15.75;4.40;;;;;;;-7.96;60.54;101659.47;4952750;28;20114;-57
2023/12/08 01:42:09;;;;;;;10.70;4.53;;;;;;;-7.90;60.53;101654.84;4955393;28;20519;-57
2023/12/08 01:44:35;;;;;;;11.38;4.72;;;;;;;-7.86;60.50;101641.69;4936942;29;20182;-55
2023/12/08 01:47:01;;;;;;;11.45;5.03;;;;;;;-7.88;60.85;101640.69;4947624;28;20094;-58
2023/12/08 01:49:27;;;;;;;9.77;4.72;;;;;;;-7.85;60.61;101643.44;4950459;28;20043;-56
2023/12/08 01:51:53;;;;;;;7.72;3.65;;;;;;;-7.81;61.04;101648.81;4951692;28;20062;-59
2023/12/08 01:54:19;;;;;;;9.65;4.68;;;;;;;-7.77;60.82;101654.94;4951435;29;20050;-60
2023/12/08 01:56:44;;;;;;;9.77;4.22;;;;;;;-8.20;60.71;101571.16;4907790;29;20035;-59
2023/12/08 01:59:11;;;;;;;10.40;4.47;;;;;;;-7.76;60.71;101647.47;4920022;29;20053;-58
2023/12/08 02:01:37;;;;;;;16.08;4.65;;;;;;;-7.74;60.69;101652.59;4950566;29;20098;-60
2023/12/08 02:04:05;;;;;;;12.60;4.95;;;;;;;-7.71;60.63;101647.78;4950368;29;20130;-58
2023/12/08 02:06:31;;;;;;;12.45;5.32;;;;;;;-7.73;60.64;101647.69;4951246;29;20447;-58
2023/12/08 02:08:58;;;;;;;11.30;4.75;;;;;;;-7.78;61.10;101643.97;4938342;29;20047;-59
2023/12/08 02:11:24;;;;;;;9.93;4.45;;;;;;;-7.90;61.17;101645.63;4950565;29;20160;-58
2023/12/08 02:13:50;;;;;;;13.20;4.63;;;;;;;-7.92;61.23;101642.13;4950289;29;20055;-60
2023/12/08 02:16:28;;;;;;;11.65;4.70;;;;;;;-7.93;61.33;101644.53;4936124;29;20070;-61
2023/12/08 02:18:55;;;;;;;9.23;4.13;;;;;;;-8.03;61.49;101607.69;4942539;29;20575;-60
2023/12/08 02:21:21;;;;;;;10.38;3.80;;;;;;;-7.94;61.45;101622.56;4925907;29;20046;-60
2023/12/08 02:23:50;;;;;;;10.20;3.30;;;;;;;-7.86;61.21;101634.09;4930906;29;20092;-59
2023/12/08 02:26:16;;;;;;;10.15;4.60;;;;;;;-7.93;60.83;101640.38;4950382;29;20051;-59
2023/12/08 02:28:43;;;;;;;9.32;4.10;;;;;;;-7.97;61.38;101642.56;4918281;29;20039;-58
2023/12/08 02:31:11;;;;;;;13.25;4.47;;;;;;;-7.99;61.25;101644.97;4937576;29;20629;-57
2023/12/08 02:33:38;;;;;;;9.65;3.75;;;;;;;-8.02;61.49;101646.41;4922218;29;20043;-58
2023/12/08 02:36:05;;;;;;;11.25;3.90;;;;;;;-8.04;61.08;101651.34;4949783;29;20054;-56
2023/12/08 02:38:32;;;;;;;8.23;4.22;;;;;;;-8.08;61.45;101640.91;4936103;29;20101;-58
2023/12/08 02:40:58;;;;;;;9.40;3.63;;;;;;;-8.05;61.61;101644.53;4938395;29;20471;-58
2023/12/08 02:43:24;;;;;;;7.80;3.35;;;;;;;-8.10;61.50;101648.38;4936806;29;20125;-56
2023/12/08 02:45:50;;;;;;;12.50;4.68;;;;;;;-8.07;61.46;101653.66;4949341;29;20209;-57
2023/12/08 02:48:17;;;;;;;10.80;3.58;;;;;;;-8.28;61.80;101615.16;4934764;29;20035;-57
2023/12/08 02:50:43;;;;;;;12.15;4.45;;;;;;;-8.05;61.64;101638.59;4935906;29;20086;-59
2023/12/08 02:53:09;;;;;;;9.23;4.10;;;;;;;-8.04;61.50;101642.88;4939616;29;20175;-59
2023/12/08 02:55:35;;;;;;;10.13;3.58;;;;;;;-8.03;61.62;101644.66;4938096;29;20055;-60
2023/12/08 02:58:00;;;;;;;8.65;3.13;;;;;;;-8.02;61.48;101637.19;4950251;29;20043;-60
2023/12/08 03:00:26;;;;;;;9.75;3.13;;;;;;;-8.07;61.64;101642.69;4949087;29;20051;-60
2023/12/08 03:02:52;;;;;;;9.70;3.38;;;;;;;-8.04;61.63;101645.41;4937270;29;20431;-58
2023/12/08 03:05:18;;;;;;;12.15;4.05;;;;;;;-8.08;61.44;101641.81;4949961;29;20058;-60
2023/12/08 03:07:44;;;;;;;11.93;3.78;;;;;;;-8.16;61.88;101626.09;4948977;29;20039;-60
2023/12/08 03:10:10;;;;;;;5.68;2.88;;;;;;;-8.12;61.81;101639.84;4950007;29;20055;-60
2023/12/08 03:12:36;;;;;;;9.88;3.88;;;;;;;-8.44;61.93;101592.16;4950689;28;20427;-61
2023/12/08 03:15:03;;;;;;;9.55;4.18;;;;;;;-8.15;61.85;101632.91;4936011;29;20075;-59
2023/12/08 03:17:30;;;;;;;8.15;3.13;;;;;;;-8.07;62.02;101645.22;4935782;29;20039;-59
2023/12/08 03:19:57;;;;;;;8.52;3.78;;;;;;;-8.07;61.92;101641.03;4950437;28;20093;-60
2023/12/08 03:22:23;;;;;;;9.05;3.78;;;;;;;-8.01;61.89;101644.00;4935404;29;20078;-59
2023/12/08 03:24:49;;;;;;;8.88;3.40;;;;;;;-8.02;61.84;101639.72;4948440;29;20055;-56
2023/12/08 03:27:15;;;;;;;10.23;4.07;;;;;;;-7.95;62.26;101651.09;4936141;29;20047;-58
2023/12/08 03:29:41;;;;;;;9.10;3.97;;;;;;;-7.89;62.29;101649.00;4934213;29;20098;-59
2023/12/08 03:32:07;;;;;;;10.48;3.65;;;;;;;-7.86;62.06;101642.56;4948809;28;20075;-57
2023/12/08 03:34:33;;;;;;;7.72;2.65;;;;;;;-7.86;61.82;101649.25;4949656;28;20039;-56
2023/12/08 03:36:59;;;;;;;11.15;4.57;;;;;;;-8.05;62.31;101629.41;4948962;29;20051;-57
2023/12/08 03:39:25;;;;;;;11.00;4.68;;;;;;;-8.21;62.17;101611.41;4949566;29;20490;-59
2023/12/08 03:41:51;;;;;;;11.68;3.70;;;;;;;-7.98;62.21;101645.84;4937423;29;20051;-60
2023/12/08 03:44:17;;;;;;;9.55;4.07;;;;;;;-8.01;62.11;101648.16;4948554;29;20043;-56
2023/12/08 03:46:43;;;;;;;6.70;3.30;;;;;;;-8.04;62.04;101646.28;4936978;29;20102;-57
2023/12/08 03:49:09;;;;;;;12.63;3.78;;;;;;;-8.04;62.08;101646.28;4935576;29;20039;-55
2023/12/08 03:51:36;;;;;;;7.47;3.42;;;;;;;-8.41;62.14;101587.34;4949571;29;22050;-59
2023/12/08 03:54:02;;;;;;;9.35;4.15;;;;;;;-8.11;62.05;101640.72;4933658;29;20574;-58
2023/12/08 03:56:28;;;;;;;12.38;3.92;;;;;;;-8.09;61.96;101645.09;4949519;28;20054;-59
2023/12/08 03:58:54;;;;;;;8.57;3.97;;;;;;;-8.31;62.31;101602.34;4936169;29;20043;-55
2023/12/08 04:01:20;;;;;;;8.52;3.60;;;;;;;-8.28;62.51;101601.69;4905581;29;20142;-60
2023/12/08 04:03:47;;;;;;;13.27;4.30;;;;;;;-7.97;62.46;101645.97;4936945;29;20067;-59
2023/12/08 04:06:13;;;;;;;9.88;4.10;;;;;;;-7.96;62.40;101644.31;4948624;29;20058;-61
2023/12/08 04:08:39;;;;;;;10.00;4.35;;;;;;;-7.96;62.57;101651.91;4948360;29;20478;-61
2023/12/08 04:11:05;;;;;;;10.18;3.78;;;;;;;-8.08;62.21;101641.81;4945898;29;20131;-60
2023/12/08 04:13:32;;;;;;;9.27;3.88;;;;;;;-7.95;62.66;101661.19;4917922;29;20072;-60
2023/12/08 04:15:57;;;;;;;11.88;4.82;;;;;;;-7.94;62.49;101660.44;4931015;29;20419;-57
2023/12/08 04:18:23;;;;;;;8.05;3.60;;;;;;;-7.97;62.81;101651.03;4933824;29;20040;-59
2023/12/08 04:20:49;;;;;;;10.00;4.63;;;;;;;-7.96;62.32;101654.44;4927044;29;20574;-57
2023/12/08 04:23:15;;;;;;;8.73;3.85;;;;;;;-7.88;62.46;101658.34;4951571;29;20070;-58
2023/12/08 04:25:41;;;;;;;10.93;4.00;;;;;;;-8.09;61.94;101606.38;4950271;29;20499;-59
2023/12/08 04:28:08;;;;;;;15.95;4.93;;;;;;;-7.86;62.31;101664.41;4915757;29;20483;-58
2023/12/08 04:30:33;;;;;;;14.35;5.63;;;;;;;-7.78;62.31;101674.25;4948576;29;20050;-58
2023/12/08 04:32:59;;;;;;;10.07;4.38;;;;;;;-7.73;62.11;101672.94;4948349;29;20043;-59
2023/12/08 04:35:25;;;;;;;15.35;5.20;;;;;;;-7.75;62.22;101671.97;4949552;29;20480;-60
2023/12/08 04:37:51;;;;;;;13.38;5.32;;;;;;;-7.74;61.60;101662.72;4949788;29;20043;-60
2023/12/08 04:40:17;;;;;;;10.90;4.47;;;;;;;-7.78;62.10;101666.69;4932697;29;20035;-57
2023/12/08 04:42:44;;;;;;;16.05;4.45;;;;;;;-7.80;62.08;101660.63;4931440;29;20368;-58
2023/12/08 04:45:10;;;;;;;16.42;5.70;;;;;;;-8.02;61.99;101619.53;4933376;28;20051;-56
2023/12/08 04:47:36;;;;;;;13.43;5.40;;;;;;;-7.77;61.39;101667.56;4954812;29;20239;-60
2023/12/08 04:50:02;;;;;;;9.02;4.15;;;;;;;-7.77;61.64;101663.38;4955072;28;20133;-60
2023/12/08 04:52:29;;;;;;;13.57;4.68;;;;;;;-7.87;61.75;101655.94;4924607;29;20051;-57
2023/12/08 04:54:56;;;;;;;18.33;5.38;;;;;;;-7.83;61.68;101657.03;4953774;28;20070;-60
2023/12/08 04:57:22;;;;;;;14.77;4.40;;;;;;;-8.27;62.03;101576.53;4954861;29;20074;-57
2023/12/08 04:59:48;;;;;;;14.57;5.85;;;;;;;-7.71;62.19;101656.25;4954890;28;20039;-56
2023/12/08 05:02:14;;;;;;;11.80;4.72;;;;;;;-7.68;62.22;101662.25;4952323;28;20094;-53
2023/12/08 05:04:41;;;;;;;18.60;5.30;;;;;;;-7.70;61.99;101664.69;4936946;29;20047;-56
2023/12/08 05:07:07;;;;;;;10.68;4.93;;;;;;;-7.86;61.96;101667.81;4955612;28;20086;-57
2023/12/08 05:09:33;;;;;;;17.27;5.07;;;;;;;-7.82;62.00;101664.72;4939972;29;20458;-57
2023/12/08 05:11:58;;;;;;;12.10;4.65;;;;;;;-7.82;61.62;101663.84;4941781;29;20047;-57
2023/12/08 05:14:24;;;;;;;12.70;5.00;;;;;;;-8.18;61.79;101610.00;4935792;29;20058;-60
2023/12/08 05:16:50;;;;;;;14.25;4.80;;;;;;;-7.86;61.81;101669.44;4950830;28;20519;-56
2023/12/08 05:19:16;;;;;;;15.32;4.80;;;;;;;-7.85;62.33;101667.00;4922518;29;20111;-57
2023/12/08 05:21:42;;;;;;;12.85;4.60;;;;;;;-8.04;62.41;101648.81;4952719;28;20071;-57
2023/12/08 05:24:08;;;;;;;13.45;5.53;;;;;;;-7.95;62.05;101664.59;4907596;29;20105;-56
2023/12/08 05:26:34;;;;;;;11.52;4.15;;;;;;;-7.80;61.81;101679.97;4940076;29;20051;-59
2023/12/08 05:29:00;;;;;;;13.02;4.40;;;;;;;-7.80;61.86;101678.31;4952201;29;20499;-59
2023/12/08 05:31:26;;;;;;;14.25;5.35;;;;;;;-7.78;62.19;101675.91;4936313;29;20043;-58
2023/12/08 05:33:52;;;;;;;16.77;6.35;;;;;;;-7.79;62.19;101681.72;4953679;28;20047;-54
2023/12/08 05:36:19;;;;;;;9.88;4.97;;;;;;;-8.08;62.21;101625.78;4939391;29;20063;-58
2023/12/08 05:38:45;;;;;;;10.88;4.82;;;;;;;-7.88;62.19;101666.81;4953515;28;20483;-59
2023/12/08 05:41:11;;;;;;;12.55;5.03;;;;;;;-7.87;62.30;101678.66;4940744;29;20052;-55
2023/12/08 05:43:37;;;;;;;14.00;4.05;;;;;;;-7.89;62.12;101670.09;4940631;28;20051;-57
2023/12/08 05:46:03;;;;;;;11.98;4.75;;;;;;;-7.84;62.27;101681.38;4955188;29;20070;-56
2023/12/08 05:48:29;;;;;;;13.98;5.18;;;;;;;-8.03;62.01;101650.56;4953323;28;20046;-54
2023/12/08 05:50:55;;;;;;;11.93;4.90;;;;;;;-7.83;62.27;101675.56;4955486;28;20166;-59
2023/12/08 05:53:21;;;;;;;11.25;3.88;;;;;;;-7.82;62.31;101679.88;4955877;28;20475;-54
2023/12/08 05:55:47;;;;;;;17.00;6.05;;;;;;;-8.04;61.93;101633.69;4943540;28;20106;-54
2023/12/08 05:58:13;;;;;;;14.43;4.85;;;;;;;-7.80;62.03;101675.78;4950492;28;20066;-58
2023/12/08 06:00:39;;;;;;;14.30;6.07;;;;;;;-7.79;62.04;101676.66;4937749;29;20422;-60
2023/12/08 06:03:05;;;;;;;13.15;4.65;;;;;;;-7.81;61.79;101670.66;4950003;29;20039;-55
2023/12/08 06:05:30;;;;;;;11.80;4.32;;;;;;;-7.82;62.35;101669.75;4939971;29;20130;-57
2023/12/08 06:07:56;;;;;;;16.67;5.32;;;;;;;-7.89;61.99;101664.16;4947239;29;20050;-54
2023/12/08 06:10:23;;;;;;;13.05;4.80;;;;;;;-7.88;62.10;101666.81;4934295;29;20041;-53
2023/12/08 06:12:49;;;;;;;16.30;5.07;;;;;;;-7.82;62.40;101658.78;4950569;29;20043;-57
2023/12/08 06:15:15;;;;;;;14.55;5.45;;;;;;;-7.83;62.16;101654.50;4951310;28;20047;-59
2023/12/08 06:17:41;;;;;;;13.15;4.60;;;;;;;-7.87;62.19;101630.69;4953403;28;20043;-55
2023/12/08 06:20:10;;;;;;;15.23;4.85;;;;;;;-7.69;62.24;101663.91;4951720;29;20142;-57
2023/12/08 06:22:37;;;;;;;11.65;4.68;;;;;;;-7.74;62.07;101652.59;4924753;29;20039;-57
2023/12/08 06:25:03;;;;;;;15.05;5.10;;;;;;;-7.72;62.38;101656.13;4949735;29;20039;-57
2023/12/08 06:27:30;;;;;;;13.68;4.38;;;;;;;-7.73;61.93;101660.31;4950503;29;20565;-61
2023/12/08 06:29:56;;;;;;;12.70;4.60;;;;;;;-7.82;62.27;101647.03;4921918;29;20043;-57
2023/12/08 06:32:26;;;;;;;17.42;5.75;;;;;;;-7.77;62.04;101645.72;4950527;29;20035;-58
2023/12/08 06:34:53;;;;;;;13.10;4.97;;;;;;;-7.82;62.08;101638.59;4926799;29;20127;-54
2023/12/08 06:37:19;;;;;;;15.20;5.72;;;;;;;-7.79;62.35;101649.78;4950116;28;20047;-53
2023/12/08 06:39:45;;;;;;;16.63;5.43;;;;;;;-8.15;62.11;101576.53;4951891;28;20103;-56
2023/12/08 06:42:11;;;;;;;22.67;6.70;;;;;;;-7.68;61.99;101640.41;4948398;29;20045;-55
2023/12/08 06:44:37;;;;;;;15.00;6.32;;;;;;;-7.67;62.15;101642.19;4935276;29;20134;-56
2023/12/08 06:47:03;;;;;;;14.68;5.00;;;;;;;-7.67;61.96;101643.81;4950482;29;20047;-54
2023/12/08 06:49:29;;;;;;;15.25;5.72;;;;;;;-7.67;61.91;101639.66;4916348;29;20043;-56
2023/12/08 06:51:55;;;;;;;14.10;5.88;;;;;;;-7.65;61.64;101630.56;4937549;29;20042;-54
2023/12/08 06:54:21;;;;;;;14.48;5.25;;;;;;;-7.61;62.00;101640.09;4949687;29;20046;-54
2023/12/08 06:56:47;;;;;;;17.55;6.07;;;;;;;-7.51;61.68;101646.66;4943696;29;20066;-53
2023/12/08 06:59:12;;;;;;;15.07;5.25;;;;;;;-7.55;61.79;101644.69;4953214;28;20110;-57
2023/12/08 07:01:38;;;;;;;14.65;5.07;;;;;;;-7.56;61.62;101648.84;4949748;29;20043;-56
2023/12/08 07:04:04;;;;;;;17.58;6.18;;;;;;;-7.64;61.62;101642.38;4949974;29;20043;-56
2023/12/08 07:06:30;;;;;;;14.93;4.75;;;;;;;-7.65;61.84;101644.81;4937468;29;20051;-57
2023/12/08 07:08:56;;;;;;;14.07;4.07;;;;;;;-7.69;61.49;101650.44;4948954;28;20137;-58
2023/12/08 07:11:22;;;;;;;14.52;5.68;;;;;;;-7.69;61.64;101651.28;4919779;29;20082;-57
2023/12/08 07:13:49;;;;;;;18.38;6.05;;;;;;;-7.93;61.35;101594.94;4949036;28;20130;-56
2023/12/08 07:16:15;;;;;;;12.90;5.22;;;;;;;-7.65;61.56;101647.34;4938791;29;20082;-53
2023/12/08 07:18:41;;;;;;;20.85;6.38;;;;;;;-7.64;61.77;101644.06;4949490;29;20067;-57
2023/12/08 07:21:07;;;;;;;19.90;5.45;;;;;;;-7.50;61.25;101644.22;4949677;29;20043;-56
2023/12/08 07:23:33;;;;;;;14.20;4.85;;;;;;;-7.21;60.78;101641.16;4935603;29;20546;-59
2023/12/08 07:26:00;;;;;;;12.02;5.13;;;;;;;-7.10;60.36;101641.88;4950283;29;20189;-58
2023/12/08 07:28:26;;;;;;;11.93;4.10;;;;;;;-7.13;59.76;101634.97;4948811;29;20478;-58
2023/12/08 07:30:52;;;;;;;11.48;4.90;;;;;;;-7.30;59.94;101640.53;4934625;29;20031;-61
2023/12/08 07:33:17;;;;;;;17.48;4.88;;;;;;;-7.26;59.91;101647.53;4948689;29;20046;-57
2023/12/08 07:35:44;;;;;;;15.27;5.53;;;;;;;-6.95;59.84;101646.31;4935902;29;20047;-55
2023/12/08 07:38:09;;;;;;;17.70;6.20;;;;;;;-6.28;59.11;101650.72;4938729;29;20078;-58
2023/12/08 07:40:35;;;;;;;12.10;5.10;;;;;;;-5.84;58.26;101652.63;4937887;29;20055;-58
2023/12/08 07:43:01;;;;;;;12.63;5.40;;;;;;;-5.92;57.20;101649.66;4948984;29;20086;-57
2023/12/08 07:45:27;;;;;;;23.92;5.82;;;;;;;-6.07;57.38;101649.53;4949467;28;20043;-57
2023/12/08 07:47:53;;;;;;;18.15;5.68;;;;;;;-6.08;57.62;101649.47;4948883;28;20153;-57
2023/12/08 07:50:19;;;;;;;14.38;4.65;;;;;;;-6.36;57.25;101605.47;4931290;29;20043;-55
2023/12/08 07:52:44;;;;;;;12.57;4.32;;;;;;;-6.24;57.42;101645.09;4949337;29;20419;-57
2023/12/08 07:55:10;;;;;;;13.95;5.82;;;;;;;-6.37;57.38;101640.00;4936963;29;20042;-56
2023/12/08 07:57:36;;;;;;;13.75;5.82;;;;;;;-6.21;57.18;101644.38;4948933;29;20039;-57
2023/12/08 08:00:06;;;;;;;14.30;5.13;;;;;;;-6.59;57.21;101589.66;4946781;29;20125;-57
2023/12/08 08:02:32;;;;;;;14.05;5.28;;;;;;;-6.54;57.31;101628.78;4933041;29;20128;-58
2023/12/08 08:04:58;;;;;;;12.68;5.30;;;;;;;-6.51;57.06;101623.94;4948868;29;20048;-54
2023/12/08 08:07:24;;;;;;;17.65;6.10;;;;;;;-6.34;57.34;101631.75;4948731;28;20043;-56
2023/12/08 08:09:51;;;;;;;25.05;8.52;;;;;;;-6.23;57.42;101630.78;4949720;28;20489;-56
2023/12/08 08:12:17;;;;;;;17.08;5.85;;;;;;;-6.31;56.86;101620.16;4935700;29;20114;-57
2023/12/08 08:14:43;;;;;;;14.30;5.35;;;;;;;-6.23;56.58;101595.34;4949190;29;20419;-53
2023/12/08 08:17:09;;;;;;;13.23;5.65;;;;;;;-5.92;56.21;101600.66;4947024;29;20483;-56
2023/12/08 08:19:35;;;;;;;13.93;5.15;;;;;;;-5.79;55.59;101600.59;4947817;28;20047;-56
2023/12/08 08:22:01;;;;;;;11.85;5.03;;;;;;;-5.47;55.58;101638.91;4947514;29;20039;-59
2023/12/08 08:24:27;;;;;;;16.67;6.20;;;;;;;-5.61;55.30;101627.06;4947881;29;20138;-55
2023/12/08 08:26:53;;;;;;;12.70;5.47;;;;;;;-5.69;54.99;101633.31;4947483;29;20130;-58
2023/12/08 08:29:18;;;;;;;15.52;6.38;;;;;;;-5.72;55.69;101635.66;4933104;29;20495;-56
2023/12/08 08:31:44;;;;;;;15.90;6.50;;;;;;;-5.82;54.99;101640.94;4919988;29;20043;-57
2023/12/08 08:34:10;;;;;;;17.55;5.55;;;;;;;-6.02;55.34;101632.16;4934997;29;20094;-59
2023/12/08 08:36:36;;;;;;;17.55;6.07;;;;;;;-6.09;55.17;101632.53;4948596;29;20039;-56
2023/12/08 08:39:03;;;;;;;14.82;5.78;;;;;;;-6.42;55.35;101613.53;4934605;29;20054;-58
2023/12/08 08:41:29;;;;;;;17.50;5.53;;;;;;;-6.54;55.70;101625.41;4947524;29;20114;-57
2023/12/08 08:43:55;;;;;;;18.15;5.88;;;;;;;-6.65;55.64;101575.78;4947409;29;20043;-54
2023/12/08 08:46:21;;;;;;;17.45;5.78;;;;;;;-6.30;55.44;101618.50;4936446;29;20431;-58
2023/12/08 08:48:46;;;;;;;14.30;4.85;;;;;;;-6.31;55.86;101604.09;4946908;29;20054;-57
2023/12/08 08:51:14;;;;;;;15.20;6.47;;;;;;;-6.40;55.52;101573.16;4947164;29;20043;-57
2023/12/08 08:53:40;;;;;;;12.13;4.60;;;;;;;-6.05;55.37;101615.09;4935422;29;20047;-58
2023/12/08 08:56:06;;;;;;;19.50;6.63;;;;;;;-6.01;55.40;101600.94;4947786;29;20035;-58
2023/12/08 08:58:34;;;;;;;12.32;5.75;;;;;;;-5.91;55.29;101610.03;4937111;29;20043;-57
2023/12/08 09:01:00;;;;;;;23.55;7.60;;;;;;;-5.82;55.16;101611.44;4947153;29;20039;-57
2023/12/08 09:03:26;;;;;;;18.65;5.22;;;;;;;-5.77;55.19;101605.00;4947309;29;20468;-57
2023/12/08 09:05:52;;;;;;;14.98;5.47;;;;;;;-5.85;55.26;101603.63;4947223;28;20053;-58
2023/12/08 09:08:18;;;;;;;15.23;5.07;;;;;;;-5.51;54.89;101580.34;4947754;29;20062;-55
2023/12/08 09:10:45;;;;;;;10.85;4.93;;;;;;;-4.70;54.36;101604.59;4948150;29;20506;-55
2023/12/08 09:13:12;;;;;;;10.50;4.88;;;;;;;-4.53;53.03;101595.44;4947075;29;20055;-57
2023/12/08 09:15:38;;;;;;;14.48;5.30;;;;;;;-5.16;52.75;101532.63;4932872;29;20130;-59
2023/12/08 09:18:05;;;;;;;12.95;4.80;;;;;;;-4.95;53.76;101598.91;4950129;28;20039;-54
2023/12/08 09:20:31;;;;;;;16.60;5.60;;;;;;;-5.09;53.34;101577.84;4929822;29;20047;-58
2023/12/08 09:22:58;;;;;;;13.93;5.15;;;;;;;-5.30;53.66;101562.25;4947180;29;20392;-57
2023/12/08 09:25:24;;;;;;;15.48;5.22;;;;;;;-5.16;53.79;101601.06;4946844;28;20043;-57
2023/12/08 09:27:49;;;;;;;12.07;4.97;;;;;;;-5.29;53.83;101593.53;4947550;28;20050;-55
2023/12/08 09:30:15;;;;;;;11.30;4.70;;;;;;;-5.78;53.90;101542.44;4947376;29;20039;-59
2023/12/08 09:32:42;;;;;;;12.55;4.72;;;;;;;-5.43;54.36;101591.81;4949278;28;20047;-58
2023/12/08 09:35:08;;;;;;;15.88;4.65;;;;;;;-5.52;53.87;101589.63;4950954;29;20087;-57
2023/12/08 09:37:34;;;;;;;15.25;5.57;;;;;;;-5.62;53.91;101594.91;4936547;29;20138;-57
2023/12/08 09:40:00;;;;;;;14.65;5.05;;;;;;;-6.17;54.08;101520.66;4950225;29;20047;-56
2023/12/08 09:42:39;;;;;;;7.90;4.28;;;;;;;-5.94;53.90;101581.97;4950484;28;20546;-58
2023/12/08 09:45:05;;;;;;;12.95;5.05;;;;;;;-6.04;54.39;101572.94;4940028;29;20138;-57
2023/12/08 09:47:35;;;;;;;13.50;5.13;;;;;;;-6.18;54.74;101577.16;4920503;29;20051;-60
2023/12/08 09:50:07;;;;;;;10.23;4.40;;;;;;;-6.51;54.66;101544.63;4947654;29;20579;-55
2023/12/08 09:52:34;;;;;;;11.60;4.57;;;;;;;-6.45;54.35;101578.81;4950200;29;20039;-59
2023/12/08 09:55:00;;;;;;;16.00;5.40;;;;;;;-6.52;55.05;101578.31;4896248;29;20051;-60
2023/12/08 09:57:35;;;;;;;14.48;5.03;;;;;;;-6.52;55.29;101571.59;4928768;29;20051;-61
2023/12/08 10:00:07;;;;;;;11.85;4.88;;;;;;;-6.54;54.71;101575.66;4934472;29;20047;-60
2023/12/08 10:02:33;;;;;;;11.35;4.20;;;;;;;-6.52;55.27;101569.06;4920930;29;20527;-58
2023/12/08 10:04:59;;;;;;;13.20;5.05;;;;;;;-6.46;55.01;101568.56;4950304;29;20718;-58
2023/12/08 10:07:33;;;;;;;14.48;5.18;;;;;;;-6.46;55.18;101566.03;4950952;29;20042;-55
2023/12/08 10:10:00;;;;;;;11.27;4.15;;;;;;;-6.54;55.27;101572.28;4923115;29;20511;-59
2023/12/08 10:12:26;;;;;;;12.95;5.53;;;;;;;-6.90;55.16;101565.69;4950168;29;20031;-56
2023/12/08 10:15:00;;;;;;;12.25;4.68;;;;;;;-6.95;55.46;101562.88;4948316;29;20158;-59
2023/12/08 10:17:26;;;;;;;10.60;4.43;;;;;;;-6.98;55.80;101572.81;4949911;29;20201;-59
2023/12/08 10:20:09;;;;;;;12.75;4.97;;;;;;;-7.08;56.01;101564.50;4950578;29;20562;-56
2023/12/08 10:22:54;;;;;;;15.02;5.07;;;;;;;-6.97;56.37;101561.03;4934722;29;20046;-59
2023/12/08 10:25:25;;;;;;;8.93;3.95;;;;;;;-7.04;56.50;101562.28;4930167;29;20165;-59
2023/12/08 10:27:54;;;;;;;11.13;4.97;;;;;;;-7.13;56.93;101556.63;4933300;29;20507;-58
2023/12/08 10:30:24;;;;;;;12.52;5.35;;;;;;;-7.12;57.27;101563.44;4937015;29;20233;-58
2023/12/08 10:32:50;;;;;;;15.02;5.13;;;;;;;-7.19;56.61;101553.69;4936597;29;20053;-57
2023/12/08 10:35:16;;;;;;;10.30;4.72;;;;;;;-7.25;56.55;101552.41;4949676;29;20058;-61
2023/12/08 10:37:43;;;;;;;13.98;4.80;;;;;;;-7.23;56.86;101549.22;4949501;29;20043;-57
2023/12/08 10:40:17;;;;;;;10.32;3.17;;;;;;;-7.37;56.76;101544.88;4950833;28;20103;-56
2023/12/08 10:42:47;;;;;;;10.55;4.85;;;;;;;-7.41;56.57;101546.34;4935613;28;20081;-55
2023/12/08 10:45:14;;;;;;;9.57;4.53;;;;;;;-7.39;56.39;101533.81;4949047;28;20123;-57
2023/12/08 10:47:42;;;;;;;10.93;4.85;;;;;;;-7.57;56.52;101543.56;4950291;29;20134;-58
2023/12/08 10:50:09;;;;;;;13.43;4.65;;;;;;;-7.62;56.81;101533.91;4921779;29;20043;-59
2023/12/08 10:52:38;;;;;;;12.35;4.53;;;;;;;-7.62;56.77;101549.06;4937077;29;20083;-57
2023/12/08 10:55:09;;;;;;;10.93;3.92;;;;;;;-7.77;56.32;101537.16;4937044;29;20429;-56
2023/12/08 10:57:36;;;;;;;12.88;4.03;;;;;;;-7.82;56.99;101542.66;4952385;28;20078;-57
2023/12/08 11:00:12;;;;;;;8.25;4.07;;;;;;;-7.91;56.99;101549.63;4949016;28;20094;-61
2023/12/08 11:02:47;;;;;;;11.68;4.50;;;;;;;-8.02;57.70;101541.31;4942110;29;20090;-58
2023/12/08 11:05:22;;;;;;;10.48;4.65;;;;;;;-8.22;57.24;101497.03;4928675;29;20528;-55
2023/12/08 11:07:49;;;;;;;10.45;4.68;;;;;;;-7.88;57.56;101527.09;4917957;29;20133;-64
2023/12/08 11:10:15;;;;;;;13.85;5.38;;;;;;;-7.82;57.25;101537.63;4906553;29;20051;-59
2023/12/08 11:12:56;;;;;;;19.48;4.57;;;;;;;-7.85;57.25;101533.22;4952177;28;20750;-62
2023/12/08 11:15:22;;;;;;;15.10;4.22;;;;;;;-7.96;57.26;101497.94;4949723;28;20051;-60
2023/12/08 11:17:51;;;;;;;11.95;4.65;;;;;;;-7.87;57.44;101501.97;4935994;29;20039;-60